Accueil
METAR-TAF:

METAR-TAF

Aéroports :

Batesville, Arkansas, États-Unis

latitude: 35-44N, longitude: 091-39W, altitude: 141 m

Observation

Le bulletin a été fait il y a 40 minutes, à 20:56 UTC
Vent 11 kt de sud-est
Température 21°C
Humidité 30%
Pression 1018 hPa
Visibilité: 16.1 km
Ciel clair

METAR: KBVX 202056Z AUTO 13011KT 10SM CLR 21/03 A3007 RMK AO2 SLP184 T02060033 56016

Heure: 15:36 (21:36 UTC)


TAF: absent

Observations et prévisions météorologiques de plus de 4000 aéroports (messages METAR et TAF).

Les stations disponibles sont représentées par des disques jaunes et rouges sur la carte.

Passer la souris dessus pour voir le nom de la station.

Cliquer dessus pour voir les observations et prévisions météorologiques.

Pour changer de carte: cliquez sur les boutons verts avec une croix noire pour zoomer, sur le bouton vert avec un tiret pour effectuer un zoom arrière, ou sur les flèches vertes pour les cartes adjacentes.


METAR-TAF: